Aviation Digital Data Service (ADDS)

Output produced by METARs form (0826 UTC 17 November 2018)
found at http://www.aviationweather.gov/metar/data/
 
TAF MDST 170400Z 1706/1806 12010KT 9999 SCT020 PRO30 1709 / 1712 4000 BR BKN014
BEMCG 1708/1711 00000KT
       
TAF MDPP 170400Z 1706/1806 00000KT 9999 PRB30 1706/1712 8000 -SH BKN016
       
TAF MDLR 170400Z 1706/1806 00000KT 9999 SCT018 SCT070 
     PROB30 1706/1712 8000 -TSRA FEW016CB SCT016 
     BECMG 1716/1718 13012KT
       
TAF MDSD 170400Z 1706/1806 04004KT 9999 FEW018
       
TAF MDBH 170400Z 1706/1806 13008KT 9999 FEW018CB SCT018
       
TAF MDPC 170400Z 1706/1806 00000KT 9999 FEW018CB FEW018 
     PROB30 1706/1712 8000 -TSRA FEW016CB SCT018 SCT070